createdAt,value
2022-09-15T00:00:26.953Z,19.34
2022-09-15T00:02:53.447Z,19.35
2022-09-15T00:05:20.298Z,19.33
2022-09-15T00:07:47.025Z,19.34
2022-09-15T00:10:13.373Z,19.28
2022-09-15T00:12:39.772Z,19.20
2022-09-15T00:15:06.738Z,19.28
2022-09-15T00:17:33.144Z,19.37
2022-09-15T00:19:59.530Z,19.30
2022-09-15T00:22:26.199Z,19.32
2022-09-15T00:24:52.547Z,19.55
2022-09-15T00:27:18.903Z,19.50
2022-09-15T00:29:45.240Z,19.45
2022-09-15T00:32:11.597Z,19.51
2022-09-15T00:34:37.987Z,19.49
2022-09-15T00:37:04.351Z,19.47
2022-09-15T00:39:30.716Z,19.47
2022-09-15T00:41:57.132Z,19.43
2022-09-15T00:44:23.407Z,19.45
2022-09-15T00:47:15.272Z,19.39
2022-09-15T00:49:41.125Z,19.32
2022-09-15T00:52:19.213Z,19.31
2022-09-15T00:55:31.872Z,19.44
2022-09-15T00:58:01.998Z,19.38
2022-09-15T01:00:29.411Z,19.36
2022-09-15T01:02:57.155Z,19.37
2022-09-15T01:05:30.187Z,19.49
2022-09-15T01:08:01.737Z,19.28
2022-09-15T01:10:30.119Z,19.15
2022-09-15T01:13:06.820Z,19.47
2022-09-15T01:16:07.007Z,19.63
2022-09-15T01:18:45.232Z,19.80
2022-09-15T01:21:22.048Z,19.71
2022-09-15T01:24:14.013Z,19.89
2022-09-15T01:27:30.570Z,19.73
2022-09-15T01:30:08.351Z,19.70
2022-09-15T01:33:04.005Z,19.98
2022-09-15T01:35:47.198Z,19.72
2022-09-15T01:38:41.560Z,19.44
2022-09-15T01:41:21.712Z,19.42
2022-09-15T01:43:59.373Z,19.78
2022-09-15T01:46:31.310Z,19.69
2022-09-15T01:49:00.660Z,19.49
2022-09-15T01:51:28.377Z,19.70
2022-09-15T01:53:56.512Z,19.55
2022-09-15T01:56:22.910Z,19.57
2022-09-15T01:58:51.168Z,19.28
2022-09-15T02:01:26.431Z,19.67
2022-09-15T02:04:07.422Z,19.60
2022-09-15T02:06:43.072Z,19.61
2022-09-15T02:09:13.788Z,19.74
2022-09-15T02:11:57.770Z,19.47
2022-09-15T02:14:43.041Z,19.24
2022-09-15T02:17:15.434Z,19.45
2022-09-15T02:19:48.622Z,19.35
2022-09-15T02:22:23.306Z,19.04
2022-09-15T02:25:12.563Z,19.04
2022-09-15T02:27:45.804Z,19.04
2022-09-15T02:30:15.870Z,18.83
2022-09-15T02:32:49.815Z,18.91
2022-09-15T02:35:17.188Z,18.95
2022-09-15T02:37:44.261Z,18.87
2022-09-15T02:40:11.376Z,18.76
2022-09-15T02:42:39.200Z,18.74
2022-09-15T02:45:06.543Z,18.41
2022-09-15T02:47:32.893Z,18.43
2022-09-15T02:49:59.235Z,18.62
2022-09-15T02:52:26.128Z,18.49
2022-09-15T02:54:52.561Z,18.25
2022-09-15T02:57:19.707Z,18.45
2022-09-15T03:00:04.344Z,18.40
2022-09-15T03:02:31.569Z,18.40
2022-09-15T03:04:58.135Z,18.41
2022-09-15T03:07:24.856Z,18.32
2022-09-15T03:09:51.505Z,18.10
2022-09-15T03:12:17.863Z,18.06
2022-09-15T03:14:44.463Z,17.88
2022-09-15T03:17:10.896Z,18.06
2022-09-15T03:19:37.344Z,17.96
2022-09-15T03:22:03.688Z,17.96
2022-09-15T03:24:30.097Z,18.03
2022-09-15T03:26:56.459Z,18.00
2022-09-15T03:29:23.030Z,17.87
2022-09-15T03:31:49.784Z,17.83
2022-09-15T03:34:16.325Z,17.88
2022-09-15T03:36:43.092Z,17.85
2022-09-15T03:39:11.390Z,17.85
2022-09-15T03:41:37.878Z,17.79
2022-09-15T03:44:04.991Z,17.90
2022-09-15T03:46:31.481Z,17.82
2022-09-15T03:48:57.841Z,17.45
2022-09-15T03:51:24.475Z,17.68
2022-09-15T03:53:50.975Z,17.65
2022-09-15T03:56:23.502Z,17.46
2022-09-15T03:58:50.967Z,17.39
2022-09-15T04:01:19.037Z,17.28
2022-09-15T04:03:50.611Z,17.20
2022-09-15T04:06:19.270Z,17.20
2022-09-15T04:08:45.712Z,17.19
2022-09-15T04:11:12.717Z,17.02
2022-09-15T04:13:40.381Z,17.09
2022-09-15T04:16:15.573Z,17.24
2022-09-15T04:18:42.498Z,17.22
2022-09-15T04:21:13.024Z,17.20
2022-09-15T04:23:40.448Z,17.24
2022-09-15T04:26:11.769Z,17.07
2022-09-15T04:28:38.870Z,17.26
2022-09-15T04:31:11.125Z,17.13
2022-09-15T04:33:40.493Z,17.42
2022-09-15T04:36:09.848Z,17.43
2022-09-15T04:38:36.711Z,17.17
2022-09-15T04:41:04.185Z,17.25
2022-09-15T04:43:30.956Z,17.16
2022-09-15T04:46:00.455Z,17.27
2022-09-15T04:48:27.585Z,17.45
2022-09-15T04:50:54.877Z,17.44
2022-09-15T04:53:21.377Z,17.39
2022-09-15T04:55:47.777Z,17.42
2022-09-15T04:58:14.268Z,17.66
2022-09-15T05:00:45.667Z,17.23
2022-09-15T05:03:14.209Z,17.19
2022-09-15T05:05:41.508Z,17.13
2022-09-15T05:08:08.270Z,17.10
2022-09-15T05:10:34.879Z,16.93
2022-09-15T05:13:01.270Z,17.03
2022-09-15T05:15:27.697Z,17.09
2022-09-15T05:17:54.091Z,16.98
2022-09-15T05:20:20.479Z,17.15
2022-09-15T05:22:47.050Z,17.33
2022-09-15T05:25:13.670Z,16.99
2022-09-15T05:27:40.399Z,16.90
2022-09-15T05:30:32.720Z,16.79
2022-09-15T05:32:53.905Z,16.80
2022-09-15T05:35:20.292Z,16.84
2022-09-15T05:37:46.947Z,16.84
2022-09-15T05:40:13.364Z,16.80
2022-09-15T05:42:40.353Z,16.82
2022-09-15T05:45:07.503Z,16.85
2022-09-15T05:47:33.861Z,16.78
2022-09-15T05:50:00.221Z,16.74
2022-09-15T05:52:26.591Z,16.82
2022-09-15T05:54:56.938Z,16.74
2022-09-15T05:57:25.290Z,16.94
2022-09-15T05:59:51.620Z,16.85
2022-09-15T06:02:18.156Z,16.88
2022-09-15T06:04:44.569Z,16.88
2022-09-15T06:07:10.976Z,16.91
2022-09-15T06:09:37.945Z,16.76
2022-09-15T06:12:04.407Z,16.85
2022-09-15T06:14:30.748Z,17.04
2022-09-15T06:16:57.150Z,17.12
2022-09-15T06:19:23.470Z,17.45
2022-09-15T06:21:49.815Z,17.34
2022-09-15T06:24:16.168Z,17.19
2022-09-15T06:26:42.557Z,17.05
2022-09-15T06:29:11.851Z,17.05
2022-09-15T06:31:38.487Z,16.96
2022-09-15T06:34:05.331Z,17.06
2022-09-15T06:36:32.852Z,16.89
2022-09-15T06:38:59.793Z,17.24
2022-09-15T06:41:38.133Z,17.09
2022-09-15T06:44:09.696Z,16.98
2022-09-15T06:46:36.207Z,17.01
2022-09-15T06:49:02.685Z,17.31
2022-09-15T06:51:31.341Z,17.76
2022-09-15T06:53:57.874Z,17.70
2022-09-15T06:56:24.271Z,17.59
2022-09-15T06:58:50.624Z,17.86
2022-09-15T07:01:25.093Z,17.81
2022-09-15T07:03:51.915Z,17.83
2022-09-15T07:06:18.784Z,17.55
2022-09-15T07:08:46.537Z,17.38
2022-09-15T07:11:13.828Z,17.45
2022-09-15T07:13:40.931Z,17.37
2022-09-15T07:16:09.631Z,17.54
2022-09-15T07:18:39.715Z,17.57
2022-09-15T07:21:11.866Z,17.40
2022-09-15T07:23:38.265Z,17.83
2022-09-15T07:26:06.778Z,17.72
2022-09-15T07:28:34.018Z,18.15
2022-09-15T07:31:00.482Z,18.25
2022-09-15T07:33:30.899Z,18.34
2022-09-15T07:35:57.275Z,18.15
2022-09-15T07:38:23.837Z,18.44
2022-09-15T07:40:50.259Z,18.19
2022-09-15T07:43:16.648Z,18.27
2022-09-15T07:45:43.036Z,18.24
2022-09-15T07:48:09.472Z,18.36
2022-09-15T07:50:35.817Z,18.31
2022-09-15T07:53:02.145Z,18.60
2022-09-15T07:55:30.330Z,18.45
2022-09-15T07:57:58.570Z,18.34
2022-09-15T08:00:26.062Z,18.38
2022-09-15T08:02:52.890Z,18.29
2022-09-15T08:05:19.808Z,18.03
2022-09-15T08:07:46.251Z,18.19
2022-09-15T08:10:12.740Z,18.01
2022-09-15T08:12:40.633Z,18.18
2022-09-15T08:15:07.358Z,18.05
2022-09-15T08:17:34.716Z,18.17
2022-09-15T08:20:01.581Z,18.14
2022-09-15T08:22:27.940Z,18.06
2022-09-15T08:24:54.260Z,18.00
2022-09-15T08:27:20.606Z,18.16
2022-09-15T08:29:46.990Z,18.43
2022-09-15T08:32:13.347Z,18.03
2022-09-15T08:34:39.784Z,18.31
2022-09-15T08:37:06.140Z,18.36
2022-09-15T08:39:32.502Z,18.46
2022-09-15T08:42:00.473Z,18.24
2022-09-15T08:44:44.525Z,18.61
2022-09-15T08:47:32.224Z,18.51
2022-09-15T08:50:14.505Z,18.49
2022-09-15T08:52:48.810Z,18.64
2022-09-15T08:55:33.605Z,18.39
2022-09-15T08:58:00.025Z,18.52
2022-09-15T09:00:26.922Z,18.50
2022-09-15T09:03:14.606Z,18.53
2022-09-15T09:06:31.768Z,18.85
2022-09-15T09:09:19.434Z,18.99
2022-09-15T09:11:48.719Z,18.63
2022-09-15T09:14:42.560Z,19.33
2022-09-15T09:17:33.096Z,19.65
2022-09-15T09:20:08.437Z,19.58
2022-09-15T09:22:39.160Z,19.70
2022-09-15T09:25:26.262Z,19.48
2022-09-15T09:27:54.314Z,19.28
2022-09-15T09:30:23.290Z,19.86
2022-09-15T09:32:54.002Z,19.67
2022-09-15T09:35:29.658Z,19.43
2022-09-15T09:37:56.683Z,19.23
2022-09-15T09:40:23.253Z,19.48
2022-09-15T09:42:49.941Z,19.69
2022-09-15T09:45:19.150Z,19.81
2022-09-15T09:47:46.435Z,19.59
2022-09-15T09:50:32.457Z,19.52
2022-09-15T09:52:59.475Z,19.80
2022-09-15T09:55:27.930Z,19.82
2022-09-15T09:58:11.181Z,20.11
2022-09-15T10:00:40.210Z,19.96
2022-09-15T10:03:17.228Z,20.24
2022-09-15T10:05:44.852Z,20.48
2022-09-15T10:08:20.055Z,20.65
2022-09-15T10:10:54.077Z,20.74
2022-09-15T10:13:21.568Z,20.91
2022-09-15T10:16:02.228Z,20.81
2022-09-15T10:18:33.519Z,20.95
2022-09-15T10:21:03.194Z,20.65
2022-09-15T10:23:32.297Z,21.22
2022-09-15T10:26:20.890Z,21.35
2022-09-15T10:29:12.557Z,21.00
2022-09-15T10:31:40.302Z,21.15
2022-09-15T10:34:25.876Z,21.00
2022-09-15T10:37:06.187Z,21.13
2022-09-15T10:40:20.316Z,21.53
2022-09-15T10:42:53.631Z,21.48
2022-09-15T10:45:32.894Z,21.37
2022-09-15T10:48:03.116Z,21.13
2022-09-15T10:50:33.802Z,20.70
2022-09-15T10:53:18.336Z,20.32
2022-09-15T10:56:12.761Z,19.73
2022-09-15T10:58:56.622Z,19.92
2022-09-15T11:01:28.686Z,19.49
2022-09-15T11:04:17.356Z,19.89
2022-09-15T11:07:10.941Z,19.77
2022-09-15T11:09:47.548Z,19.75
2022-09-15T11:12:29.539Z,20.05
2022-09-15T11:15:07.039Z,19.90
2022-09-15T11:18:00.914Z,19.85
2022-09-15T11:20:59.729Z,20.35
2022-09-15T11:23:34.684Z,20.36
2022-09-15T11:26:09.712Z,20.33
2022-09-15T11:28:45.092Z,20.39
2022-09-15T11:31:23.792Z,20.28
2022-09-15T11:33:56.716Z,20.60
2022-09-15T11:36:25.175Z,20.48
2022-09-15T11:39:18.891Z,20.47
2022-09-15T11:41:56.389Z,20.47
2022-09-15T11:44:32.787Z,21.00
2022-09-15T11:47:11.448Z,21.33
2022-09-15T11:49:45.090Z,21.67
2022-09-15T11:52:29.575Z,21.38
2022-09-15T11:55:05.067Z,21.29
2022-09-15T11:57:43.156Z,21.27
2022-09-15T12:00:14.673Z,21.29
2022-09-15T12:02:53.073Z,21.44
2022-09-15T12:05:24.297Z,21.52
2022-09-15T12:08:00.812Z,21.05
2022-09-15T12:10:31.695Z,20.95
2022-09-15T12:13:00.204Z,21.13
2022-09-15T12:15:27.444Z,21.21
2022-09-15T12:17:56.995Z,21.40
2022-09-15T12:20:46.537Z,21.31
2022-09-15T12:23:40.584Z,21.17
2022-09-15T12:26:17.473Z,21.19
2022-09-15T12:28:46.932Z,21.53
2022-09-15T12:31:13.335Z,21.45
2022-09-15T12:33:42.778Z,21.48
2022-09-15T12:37:03.504Z,21.53
2022-09-15T12:39:46.975Z,21.58
2022-09-15T12:42:18.870Z,21.46
2022-09-15T12:44:47.890Z,21.59
2022-09-15T12:47:41.479Z,21.97
2022-09-15T12:50:08.372Z,21.61
2022-09-15T12:52:48.123Z,21.26
2022-09-15T12:55:21.080Z,21.37
2022-09-15T12:57:52.661Z,21.12
2022-09-15T13:00:42.509Z,20.93
2022-09-15T13:03:51.214Z,21.02
2022-09-15T13:06:35.873Z,21.05
2022-09-15T13:09:02.167Z,21.05
2022-09-15T13:11:36.370Z,21.40
2022-09-15T13:14:10.626Z,21.44
2022-09-15T13:16:56.576Z,21.22
2022-09-15T13:19:29.220Z,21.42
2022-09-15T13:22:01.524Z,21.68
2022-09-15T13:24:38.083Z,21.98
2022-09-15T13:27:06.210Z,22.19
2022-09-15T13:29:38.242Z,21.79
2022-09-15T13:32:21.369Z,21.77
2022-09-15T13:35:19.526Z,21.52
2022-09-15T13:38:22.061Z,21.60
2022-09-15T13:41:10.028Z,21.41
2022-09-15T13:44:01.339Z,21.18
2022-09-15T13:46:46.895Z,21.17
2022-09-15T13:49:43.838Z,21.12
2022-09-15T13:52:24.121Z,21.51
2022-09-15T13:55:17.125Z,21.66
2022-09-15T14:00:53.527Z,21.86
2022-09-15T14:03:25.739Z,21.92
2022-09-15T14:08:30.266Z,21.74
2022-09-15T14:11:01.027Z,21.78
2022-09-15T14:13:29.895Z,21.95
2022-09-15T14:15:57.408Z,21.77
2022-09-15T14:18:23.997Z,21.45
2022-09-15T14:21:02.058Z,21.17
2022-09-15T14:23:29.046Z,20.89
2022-09-15T14:25:59.633Z,20.80
2022-09-15T14:28:32.673Z,20.82
2022-09-15T14:31:00.606Z,20.77
2022-09-15T14:33:37.924Z,20.84
2022-09-15T14:36:34.485Z,20.68
2022-09-15T14:39:08.800Z,20.80
2022-09-15T14:41:36.541Z,20.95
2022-09-15T14:47:26.193Z,21.48
2022-09-15T14:50:08.004Z,21.36
2022-09-15T14:52:40.175Z,21.57
2022-09-15T14:55:13.853Z,21.40
2022-09-15T15:00:22.813Z,21.38
2022-09-15T15:03:31.526Z,21.26
2022-09-15T15:06:12.737Z,21.23
2022-09-15T15:09:03.298Z,21.15
2022-09-15T15:11:32.621Z,21.54
2022-09-15T15:13:59.453Z,21.25
2022-09-15T15:16:31.779Z,21.24
2022-09-15T15:18:58.740Z,21.26
2022-09-15T15:21:43.678Z,21.36
2022-09-15T15:24:12.743Z,21.42
2022-09-15T15:26:43.897Z,21.46
2022-09-15T15:29:47.051Z,21.31
2022-09-15T15:32:16.336Z,21.45
2022-09-15T15:34:51.935Z,21.52
2022-09-15T15:37:31.460Z,21.70
2022-09-15T15:40:02.155Z,21.85
2022-09-15T15:42:29.316Z,21.41
2022-09-15T15:45:05.172Z,21.33
2022-09-15T15:47:35.707Z,21.19
2022-09-15T15:50:14.704Z,21.02
2022-09-15T15:52:42.325Z,20.94
2022-09-15T15:55:13.512Z,21.18
2022-09-15T15:57:40.120Z,21.14
2022-09-15T16:00:25.721Z,21.44
2022-09-15T16:02:53.238Z,21.47
2022-09-15T16:05:22.024Z,21.33
2022-09-15T16:07:51.155Z,21.49
2022-09-15T16:10:20.177Z,21.70
2022-09-15T16:12:46.601Z,21.95
2022-09-15T16:15:19.226Z,21.79
2022-09-15T16:17:46.822Z,21.76
2022-09-15T16:20:15.898Z,21.64
2022-09-15T16:22:42.881Z,21.49
2022-09-15T16:25:15.747Z,21.21
2022-09-15T16:27:42.390Z,21.04
2022-09-15T16:30:11.928Z,21.18
2022-09-15T16:32:40.174Z,21.16
2022-09-15T16:35:37.278Z,21.05
2022-09-15T16:38:03.688Z,21.11
2022-09-15T16:40:30.113Z,21.09
2022-09-15T16:42:56.662Z,20.72
2022-09-15T16:45:35.149Z,20.74
2022-09-15T16:48:04.823Z,20.77
2022-09-15T16:50:31.279Z,20.46
2022-09-15T16:52:58.362Z,20.43
2022-09-15T16:55:31.173Z,20.50
2022-09-15T16:57:59.744Z,20.45
2022-09-15T17:00:27.859Z,20.48
2022-09-15T17:02:54.325Z,20.26
2022-09-15T17:05:36.261Z,20.77
2022-09-15T17:08:04.803Z,20.42
2022-09-15T17:10:31.582Z,20.26
2022-09-15T17:12:57.963Z,20.32
2022-09-15T17:15:39.009Z,20.73
2022-09-15T17:18:07.602Z,20.16
2022-09-15T17:20:39.422Z,20.13
2022-09-15T17:23:19.449Z,20.17
2022-09-15T17:25:51.890Z,20.16
2022-09-15T17:28:22.724Z,20.13
2022-09-15T17:30:51.327Z,20.31
2022-09-15T17:33:20.422Z,20.17
2022-09-15T17:35:47.540Z,19.96
2022-09-15T17:38:14.839Z,20.07
2022-09-15T17:40:41.634Z,19.91
2022-09-15T17:43:15.440Z,19.89
2022-09-15T17:45:42.333Z,19.89
2022-09-15T17:48:09.629Z,19.87
2022-09-15T17:50:38.023Z,19.83
2022-09-15T17:53:37.075Z,19.81
2022-09-15T17:56:03.485Z,19.71
2022-09-15T17:58:31.308Z,19.70
2022-09-15T18:00:58.436Z,19.85
2022-09-15T18:03:30.258Z,20.05
2022-09-15T18:05:58.495Z,19.79
2022-09-15T18:08:26.136Z,19.63
2022-09-15T18:10:52.760Z,19.87
2022-09-15T18:13:22.039Z,19.78
2022-09-15T18:15:49.224Z,19.73
2022-09-15T18:18:19.690Z,19.55
2022-09-15T18:20:46.676Z,19.86
2022-09-15T18:23:14.565Z,20.08
2022-09-15T18:25:41.320Z,19.99
2022-09-15T18:28:07.714Z,19.35
2022-09-15T18:30:38.351Z,19.07
2022-09-15T18:33:04.760Z,19.06
2022-09-15T18:35:31.097Z,18.80
2022-09-15T18:37:59.235Z,18.56
2022-09-15T18:40:27.256Z,18.35
2022-09-15T18:42:54.159Z,18.39
2022-09-15T18:45:22.172Z,18.30
2022-09-15T18:47:50.364Z,18.24
2022-09-15T18:50:19.187Z,18.25
2022-09-15T18:52:46.446Z,18.43
2022-09-15T18:55:18.934Z,18.59
2022-09-15T18:57:45.793Z,18.45
2022-09-15T19:00:23.905Z,18.68
2022-09-15T19:02:57.034Z,18.67
2022-09-15T19:05:23.479Z,18.92
2022-09-15T19:07:49.844Z,18.99
2022-09-15T19:10:17.301Z,18.79
2022-09-15T19:12:43.725Z,18.75
2022-09-15T19:15:11.632Z,18.84
2022-09-15T19:17:39.298Z,18.55
2022-09-15T19:20:07.381Z,18.55
2022-09-15T19:22:34.440Z,18.48
2022-09-15T19:25:01.049Z,18.25
2022-09-15T19:27:27.467Z,18.71
2022-09-15T19:29:53.817Z,18.47
2022-09-15T19:32:20.954Z,18.60
2022-09-15T19:34:47.867Z,18.52
2022-09-15T19:37:18.874Z,18.80
2022-09-15T19:39:46.430Z,18.68
2022-09-15T19:42:13.395Z,18.41
2022-09-15T19:44:41.326Z,18.37
2022-09-15T19:47:08.579Z,18.52
2022-09-15T19:49:35.100Z,18.62
2022-09-15T19:52:01.517Z,18.44
2022-09-15T19:54:29.605Z,18.14
2022-09-15T19:56:56.454Z,18.25
2022-09-15T19:59:27.394Z,18.29
2022-09-15T20:01:56.788Z,18.06
2022-09-15T20:04:23.231Z,18.11
2022-09-15T20:06:49.580Z,18.10
2022-09-15T20:09:16.182Z,18.02
2022-09-15T20:11:42.531Z,17.87
2022-09-15T20:14:08.948Z,17.88
2022-09-15T20:16:35.715Z,17.67
2022-09-15T20:19:03.717Z,17.65
2022-09-15T20:21:49.665Z,17.57
2022-09-15T20:24:17.817Z,17.38
2022-09-15T20:26:44.215Z,17.39
2022-09-15T20:29:10.752Z,17.24
2022-09-15T20:31:37.262Z,17.04
2022-09-15T20:34:03.728Z,17.01
2022-09-15T20:36:35.962Z,16.97
2022-09-15T20:39:04.565Z,16.93
2022-09-15T20:41:34.213Z,16.88
2022-09-15T20:44:00.798Z,16.89
2022-09-15T20:46:31.329Z,16.95
2022-09-15T20:48:57.703Z,16.83
2022-09-15T20:51:27.743Z,16.83
2022-09-15T20:53:55.774Z,16.89
2022-09-15T20:56:25.520Z,16.88
2022-09-15T20:58:57.694Z,16.84
2022-09-15T21:01:36.531Z,16.82
2022-09-15T21:04:03.735Z,16.72
2022-09-15T21:06:31.469Z,16.69
2022-09-15T21:08:58.508Z,16.66
2022-09-15T21:11:31.634Z,16.59
2022-09-15T21:13:58.754Z,16.48
2022-09-15T21:16:27.761Z,16.40
2022-09-15T21:18:56.598Z,16.48
2022-09-15T21:21:28.280Z,16.38
2022-09-15T21:24:01.136Z,16.24
2022-09-15T21:26:33.051Z,16.32
2022-09-15T21:28:59.675Z,16.30
2022-09-15T21:31:31.899Z,16.31
2022-09-15T21:33:59.133Z,16.33
2022-09-15T21:36:28.078Z,16.40
2022-09-15T21:38:56.301Z,16.45
2022-09-15T21:41:25.957Z,16.38
2022-09-15T21:43:54.860Z,16.30
2022-09-15T21:46:24.556Z,16.20
2022-09-15T21:48:51.676Z,16.16
2022-09-15T21:51:24.710Z,16.16
2022-09-15T21:53:53.686Z,16.20
2022-09-15T21:56:20.816Z,16.21
2022-09-15T21:58:47.592Z,16.26
2022-09-15T22:01:19.935Z,16.24
2022-09-15T22:03:55.205Z,16.16
2022-09-15T22:06:27.583Z,16.29
2022-09-15T22:08:55.272Z,16.33
2022-09-15T22:11:22.625Z,16.33
2022-09-15T22:13:49.409Z,16.29
2022-09-15T22:16:18.533Z,16.27
2022-09-15T22:18:45.614Z,16.33
2022-09-15T22:21:27.864Z,16.28
2022-09-15T22:23:56.353Z,16.38
2022-09-15T22:26:28.066Z,16.23
2022-09-15T22:28:55.049Z,16.28
2022-09-15T22:31:23.106Z,16.22
2022-09-15T22:33:50.265Z,16.08
2022-09-15T22:36:25.244Z,16.05
2022-09-15T22:38:55.611Z,16.11
2022-09-15T22:41:25.629Z,16.09
2022-09-15T22:43:52.063Z,16.40
2022-09-15T22:46:19.429Z,16.28
2022-09-15T22:48:45.918Z,16.27
2022-09-15T22:51:13.252Z,16.29
2022-09-15T22:53:39.600Z,16.26
2022-09-15T22:56:06.489Z,16.48
2022-09-15T22:58:35.135Z,16.36
2022-09-15T23:01:16.702Z,16.35
2022-09-15T23:03:43.950Z,16.14
2022-09-15T23:06:10.521Z,16.33
2022-09-15T23:08:37.297Z,16.32
2022-09-15T23:11:09.558Z,16.32
2022-09-15T23:13:36.641Z,16.46
2022-09-15T23:16:03.988Z,16.38
2022-09-15T23:18:30.447Z,16.37
2022-09-15T23:20:58.848Z,16.28
2022-09-15T23:23:25.982Z,16.33
2022-09-15T23:25:52.665Z,16.45
2022-09-15T23:28:19.083Z,16.51
2022-09-15T23:30:45.503Z,16.51
2022-09-15T23:33:12.162Z,16.43
2022-09-15T23:35:38.504Z,16.23
2022-09-15T23:38:04.887Z,16.24
2022-09-15T23:40:31.289Z,16.36
2022-09-15T23:42:57.650Z,16.36
2022-09-15T23:45:24.016Z,16.54
2022-09-15T23:47:50.392Z,16.29
2022-09-15T23:50:16.825Z,16.22
2022-09-15T23:52:43.174Z,16.32
2022-09-15T23:55:09.711Z,16.25
2022-09-15T23:57:36.157Z,16.36
